Time;durP1;ratioP1;P1;durP2;ratioP2;P2;SDS_P1;SDS_P2;PMS_P1;PMS_P2;Temp;Humidity;BMP_temperature;BMP_pressure;BME280_temperature;BME280_humidity;BME280_pressure;Samples;Min_cycle;Max_cycle;Signal;HPM_P1;HPM_P2
2023/03/23 00:01:06;;;;;;;4.90;3.75;;;9.60;99.90;;;;;;5039612;28;20196;-77
2023/03/23 00:03:32;;;;;;;4.05;3.70;;;9.60;99.90;;;;;;5045924;28;20212;-77
2023/03/23 00:06:07;;;;;;;5.63;4.40;;;9.60;99.90;;;;;;5042577;28;20176;-77
2023/03/23 00:08:37;;;;;;;3.83;3.53;;;9.60;99.90;;;;;;5038657;28;20208;-77
2023/03/23 00:11:07;;;;;;;3.60;3.30;;;9.60;99.90;;;;;;5048839;28;20754;-77
2023/03/23 00:13:33;;;;;;;4.28;3.88;;;9.70;99.90;;;;;;5038878;28;20186;-77
2023/03/23 00:15:58;;;;;;;5.03;3.80;;;9.70;99.90;;;;;;5041397;28;20185;-77
2023/03/23 00:18:25;;;;;;;4.78;3.40;;;9.70;99.90;;;;;;5048467;28;20555;-77
2023/03/23 00:20:53;;;;;;;4.85;4.10;;;9.70;99.90;;;;;;5036451;28;20200;-77
2023/03/23 00:23:20;;;;;;;3.63;3.33;;;9.60;99.90;;;;;;5045213;28;20189;-77
2023/03/23 00:25:52;;;;;;;4.20;3.80;;;9.70;99.90;;;;;;5042352;28;20184;-76
2023/03/23 00:28:24;;;;;;;4.03;3.72;;;9.60;99.90;;;;;;5037815;28;20181;-76
2023/03/23 00:31:07;;;;;;;6.95;3.67;;;9.60;99.90;;;;;;5036612;28;20193;-77
2023/03/23 00:33:40;;;;;;;4.28;3.97;;;9.60;99.90;;;;;;5036557;28;20183;-77
2023/03/23 00:36:11;;;;;;;4.82;3.70;;;9.50;99.90;;;;;;5029599;28;20641;-76
2023/03/23 00:38:38;;;;;;;4.68;4.07;;;9.40;99.90;;;;;;5034982;28;20200;-76
2023/03/23 00:41:05;;;;;;;5.45;4.20;;;9.30;99.90;;;;;;5023715;28;20196;-76
2023/03/23 00:43:35;;;;;;;4.57;4.18;;;9.30;99.90;;;;;;5039690;28;20180;-76
2023/03/23 00:46:01;;;;;;;5.22;4.05;;;9.30;99.90;;;;;;5037512;28;20184;-77
2023/03/23 00:48:28;;;;;;;4.85;3.83;;;9.30;99.90;;;;;;5040424;28;20175;-76
2023/03/23 00:50:55;;;;;;;5.88;4.28;;;9.30;99.90;;;;;;5046132;28;20203;-76
2023/03/23 00:53:22;;;;;;;8.43;3.85;;;9.20;99.90;;;;;;5044284;28;20215;-75
2023/03/23 00:55:48;;;;;;;7.22;4.00;;;9.20;99.90;;;;;;5035139;28;20176;-76
2023/03/23 00:58:15;;;;;;;4.72;3.75;;;9.10;99.90;;;;;;5045407;28;20180;-76
2023/03/23 01:00:41;;;;;;;4.88;4.38;;;9.10;99.90;;;;;;5042476;28;20199;-76
2023/03/23 01:03:11;;;;;;;4.63;4.10;;;9.10;99.90;;;;;;5048250;28;20180;-76
2023/03/23 01:05:38;;;;;;;7.10;4.43;;;9.10;99.90;;;;;;5044187;28;20181;-77
2023/03/23 01:08:05;;;;;;;5.13;4.57;;;9.10;99.90;;;;;;5045493;28;20519;-77
2023/03/23 01:10:34;;;;;;;5.03;4.57;;;9.10;99.90;;;;;;5038279;28;20547;-77
2023/03/23 01:13:00;;;;;;;4.82;4.40;;;9.20;99.90;;;;;;5038660;28;20264;-77
2023/03/23 01:15:27;;;;;;;5.95;4.75;;;9.20;99.90;;;;;;5043705;28;20188;-77
2023/03/23 01:17:53;;;;;;;7.75;4.68;;;9.20;99.90;;;;;;5036141;28;20234;-77
2023/03/23 01:20:19;;;;;;;5.47;4.60;;;9.10;99.90;;;;;;5045677;28;20215;-77
2023/03/23 01:22:45;;;;;;;4.90;4.45;;;9.00;99.90;;;;;;5043327;28;20280;-78
2023/03/23 01:25:12;;;;;;;4.53;4.13;;;9.00;99.90;;;;;;5040934;28;20601;-77
2023/03/23 01:27:37;;;;;;;5.20;4.70;;;9.00;99.90;;;;;;5041268;28;20259;-77
2023/03/23 01:30:05;;;;;;;5.22;4.72;;;9.00;99.90;;;;;;5042865;28;20265;-77
2023/03/23 01:32:31;;;;;;;6.47;5.22;;;9.00;99.90;;;;;;5049171;28;20204;-77
2023/03/23 01:34:57;;;;;;;6.00;4.75;;;9.10;99.90;;;;;;5043822;28;20195;-77
2023/03/23 01:37:25;;;;;;;5.78;4.75;;;9.10;99.90;;;;;;5045397;28;20655;-77
2023/03/23 01:39:57;;;;;;;5.40;4.93;;;9.10;99.90;;;;;;5041849;28;20290;-78
2023/03/23 01:42:25;;;;;;;6.00;4.70;;;9.10;99.90;;;;;;5043577;28;20200;-77
2023/03/23 01:44:51;;;;;;;6.22;5.10;;;9.10;99.90;;;;;;5034710;28;20671;-76
2023/03/23 01:47:23;;;;;;;6.72;5.25;;;9.00;99.90;;;;;;5045794;28;20183;-78
2023/03/23 01:49:50;;;;;;;5.88;4.43;;;9.00;99.90;;;;;;5040354;28;20235;-78
2023/03/23 01:52:26;;;;;;;6.82;5.05;;;9.00;99.90;;;;;;5044436;28;20216;-78
2023/03/23 01:54:55;;;;;;;4.82;4.43;;;9.00;99.90;;;;;;5036852;28;20184;-78
2023/03/23 01:57:23;;;;;;;8.00;5.28;;;9.10;99.90;;;;;;5033940;28;20263;-78
2023/03/23 01:59:52;;;;;;;6.07;5.47;;;9.00;99.90;;;;;;5035877;28;20208;-77
2023/03/23 02:02:20;;;;;;;8.30;5.13;;;8.90;99.90;;;;;;5040065;28;20192;-77
2023/03/23 02:04:46;;;;;;;5.93;5.38;;;8.90;99.90;;;;;;5043005;28;20176;-77
2023/03/23 02:07:15;;;;;;;7.65;5.45;;;8.90;99.90;;;;;;5029100;28;20757;-77
2023/03/23 02:09:40;;;;;;;7.63;5.20;;;8.90;99.90;;;;;;5041951;28;20187;-77
2023/03/23 02:12:06;;;;;;;7.28;5.35;;;8.90;99.90;;;;;;5037644;28;20204;-77
2023/03/23 02:14:32;;;;;;;6.95;5.57;;;8.90;99.90;;;;;;5032273;28;20216;-77
2023/03/23 02:17:17;;;;;;;8.98;5.18;;;8.90;99.90;;;;;;5033263;28;20323;-77
2023/03/23 02:19:58;;;;;;;6.65;5.50;;;8.90;99.90;;;;;;5040632;28;20298;-77
2023/03/23 02:23:08;;;;;;;9.50;5.75;;;8.80;99.90;;;;;;5037884;28;20207;-77
2023/03/23 02:25:52;;;;;;;7.55;5.28;;;8.70;99.90;;;;;;5024098;28;20282;-77
2023/03/23 02:28:29;;;;;;;5.57;4.80;;;8.70;99.90;;;;;;5035658;28;20590;-77
2023/03/23 02:31:16;;;;;;;5.80;5.07;;;8.80;99.90;;;;;;5039416;28;20206;-77
2023/03/23 02:33:45;;;;;;;6.60;5.03;;;8.80;99.90;;;;;;5033966;28;20176;-77
2023/03/23 02:36:18;;;;;;;6.72;4.60;;;8.90;99.90;;;;;;5042109;28;20681;-77
2023/03/23 02:38:50;;;;;;;5.45;4.95;;;8.90;99.90;;;;;;5038837;28;20564;-77
2023/03/23 02:41:21;;;;;;;6.30;5.00;;;8.90;99.90;;;;;;5037401;28;20195;-76
2023/03/23 02:43:48;;;;;;;5.53;5.05;;;9.00;99.90;;;;;;5023966;28;20185;-77
2023/03/23 02:46:15;;;;;;;5.53;5.03;;;9.00;99.90;;;;;;5034751;28;20178;-77
2023/03/23 02:48:43;;;;;;;5.00;4.60;;;9.00;99.90;;;;;;5033937;28;20675;-77
2023/03/23 02:51:11;;;;;;;5.68;4.80;;;9.10;99.90;;;;;;5043834;28;20208;-77
2023/03/23 02:53:41;;;;;;;8.88;4.97;;;9.10;99.90;;;;;;5041711;28;20245;-77
2023/03/23 02:56:08;;;;;;;5.57;5.05;;;9.10;99.90;;;;;;5037139;28;20178;-76
2023/03/23 02:58:34;;;;;;;5.97;5.28;;;9.20;99.90;;;;;;5035806;28;20180;-77
2023/03/23 03:01:16;;;;;;;6.85;5.28;;;9.20;99.90;;;;;;5027785;28;20267;-76
2023/03/23 03:03:41;;;;;;;5.40;4.90;;;9.20;99.90;;;;;;5041959;28;20178;-77
2023/03/23 03:06:32;;;;;;;5.78;5.28;;;9.20;99.90;;;;;;5024475;28;20180;-77
2023/03/23 03:09:14;;;;;;;8.70;5.50;;;9.10;99.90;;;;;;5038976;28;20238;-77
2023/03/23 03:11:45;;;;;;;6.43;5.10;;;9.00;99.90;;;;;;5042994;28;20682;-76
2023/03/23 03:14:21;;;;;;;6.07;5.03;;;9.10;99.90;;;;;;5031058;28;20223;-77
2023/03/23 03:17:07;;;;;;;7.15;5.20;;;9.10;99.90;;;;;;5034891;28;20223;-77
2023/03/23 03:19:38;;;;;;;8.60;5.13;;;9.00;99.90;;;;;;5042690;28;20207;-77
2023/03/23 03:22:04;;;;;;;6.35;5.45;;;9.00;99.90;;;;;;5045646;28;20604;-77
2023/03/23 03:24:32;;;;;;;10.00;5.68;;;9.00;99.90;;;;;;5052794;28;20255;-77
2023/03/23 03:27:00;;;;;;;5.82;4.95;;;9.00;99.90;;;;;;5035769;28;20181;-76
2023/03/23 03:29:32;;;;;;;6.50;5.30;;;9.10;99.90;;;;;;5041195;28;20202;-77
2023/03/23 03:31:59;;;;;;;6.00;5.50;;;9.10;99.90;;;;;;5042477;28;20833;-77
2023/03/23 03:34:25;;;;;;;5.15;4.75;;;9.10;99.90;;;;;;5037986;28;20195;-76
2023/03/23 03:36:54;;;;;;;10.05;5.43;;;9.00;99.90;;;;;;5046148;28;20176;-79
2023/03/23 03:39:21;;;;;;;6.38;5.78;;;9.10;99.90;;;;;;5043642;28;20204;-76
2023/03/23 03:41:47;;;;;;;6.05;5.30;;;9.00;99.90;;;;;;5049943;28;20188;-75
2023/03/23 03:44:13;;;;;;;7.72;5.43;;;9.10;99.90;;;;;;5044312;28;20180;-77
2023/03/23 03:46:38;;;;;;;6.20;5.60;;;9.10;99.90;;;;;;5047181;28;20179;-76
2023/03/23 03:49:06;;;;;;;5.65;5.13;;;9.10;99.90;;;;;;5042732;28;20191;-76
2023/03/23 03:51:34;;;;;;;5.78;5.28;;;9.10;99.90;;;;;;5045223;28;20257;-77
2023/03/23 03:54:00;;;;;;;6.68;5.65;;;9.20;99.90;;;;;;5046470;28;20260;-75
2023/03/23 03:56:26;;;;;;;6.35;5.63;;;9.20;99.90;;;;;;5042636;28;20568;-75
2023/03/23 03:58:52;;;;;;;9.23;5.93;;;9.30;99.90;;;;;;5041987;28;20224;-77
2023/03/23 04:01:21;;;;;;;6.47;5.70;;;9.30;99.90;;;;;;5034263;28;20272;-76
2023/03/23 04:03:47;;;;;;;6.13;5.53;;;9.20;99.90;;;;;;5042881;28;20180;-76
2023/03/23 04:06:12;;;;;;;6.28;5.30;;;9.10;99.90;;;;;;5034821;28;20184;-76
2023/03/23 04:08:41;;;;;;;5.15;4.72;;;9.10;99.90;;;;;;5035798;28;20168;-74
2023/03/23 04:11:07;;;;;;;5.65;5.15;;;9.10;99.90;;;;;;5041278;28;20194;-76
2023/03/23 04:13:33;;;;;;;8.73;5.05;;;9.10;99.90;;;;;;5042129;28;20173;-75
2023/03/23 04:16:00;;;;;;;5.35;4.82;;;9.20;99.90;;;;;;5039036;28;20613;-76
2023/03/23 04:18:26;;;;;;;5.47;4.97;;;9.20;99.90;;;;;;5030165;28;20897;-76
2023/03/23 04:20:52;;;;;;;7.03;5.32;;;9.30;99.90;;;;;;5036274;28;20197;-77
2023/03/23 04:23:19;;;;;;;6.03;5.50;;;9.40;99.90;;;;;;5038327;28;20186;-77
2023/03/23 04:25:56;;;;;;;6.00;5.32;;;9.30;99.90;;;;;;5036159;28;20172;-76
2023/03/23 04:28:24;;;;;;;6.43;5.63;;;9.30;99.90;;;;;;5030907;28;20183;-76
2023/03/23 04:31:02;;;;;;;8.52;5.60;;;9.30;99.90;;;;;;5048718;28;20203;-76
2023/03/23 04:33:29;;;;;;;7.35;5.90;;;9.30;99.90;;;;;;5029728;28;20226;-75
2023/03/23 04:36:00;;;;;;;8.27;5.30;;;9.20;99.90;;;;;;5031517;28;20176;-77
2023/03/23 04:38:28;;;;;;;6.30;5.60;;;9.20;99.90;;;;;;5025690;28;20185;-77
2023/03/23 04:40:54;;;;;;;7.30;5.55;;;9.20;99.90;;;;;;5033793;28;20714;-77
2023/03/23 04:43:22;;;;;;;8.23;5.90;;;9.10;99.90;;;;;;5036279;28;20612;-77
2023/03/23 04:45:59;;;;;;;6.47;5.63;;;9.10;99.90;;;;;;5037419;28;20705;-77
2023/03/23 04:48:29;;;;;;;6.70;5.65;;;9.00;99.90;;;;;;5032429;28;20211;-76
2023/03/23 04:50:55;;;;;;;6.55;5.78;;;9.10;99.90;;;;;;5034030;28;20228;-77
2023/03/23 04:53:21;;;;;;;6.63;6.03;;;9.10;99.90;;;;;;5034236;28;20187;-77
2023/03/23 04:55:47;;;;;;;6.70;6.07;;;9.10;99.90;;;;;;5034797;28;20177;-76
2023/03/23 04:58:14;;;;;;;7.05;5.80;;;9.00;99.90;;;;;;5042492;28;20280;-75
2023/03/23 05:00:40;;;;;;;6.97;5.57;;;8.90;99.90;;;;;;5036298;28;20374;-77
2023/03/23 05:03:07;;;;;;;8.25;6.10;;;8.90;99.90;;;;;;5036477;28;20172;-79
2023/03/23 05:05:34;;;;;;;6.82;6.13;;;9.00;99.90;;;;;;5027276;28;20249;-78
2023/03/23 05:08:00;;;;;;;6.43;5.75;;;9.10;99.90;;;;;;5032192;28;20177;-77
2023/03/23 05:10:26;;;;;;;6.50;5.90;;;9.20;99.90;;;;;;5032262;28;20655;-78
2023/03/23 05:12:53;;;;;;;6.13;5.45;;;9.10;99.90;;;;;;5043898;28;20653;-77
2023/03/23 05:15:18;;;;;;;6.40;5.82;;;9.10;99.90;;;;;;5040532;28;20182;-78
2023/03/23 05:17:44;;;;;;;6.20;5.70;;;9.00;99.90;;;;;;5034516;28;20255;-78
2023/03/23 05:20:14;;;;;;;8.45;6.13;;;9.00;99.90;;;;;;5038264;28;20579;-77
2023/03/23 05:22:44;;;;;;;6.25;5.75;;;9.00;99.90;;;;;;5030884;28;20216;-77
2023/03/23 05:25:10;;;;;;;5.75;5.25;;;8.90;99.90;;;;;;5031571;28;20205;-77
2023/03/23 05:27:37;;;;;;;9.70;5.93;;;9.10;99.90;;;;;;5040193;28;20172;-79
2023/03/23 05:30:04;;;;;;;6.57;5.70;;;9.10;99.90;;;;;;5042597;28;20191;-79
2023/03/23 05:32:30;;;;;;;7.53;5.32;;;9.20;99.90;;;;;;5047339;28;20280;-81
2023/03/23 05:34:57;;;;;;;6.30;5.55;;;9.30;99.90;;;;;;5046682;28;20244;-81
2023/03/23 05:37:23;;;;;;;5.60;5.10;;;9.30;99.90;;;;;;5033895;28;20185;-80
2023/03/23 05:39:53;;;;;;;6.07;5.47;;;9.40;99.90;;;;;;5037828;28;20201;-81
2023/03/23 05:42:22;;;;;;;5.25;4.75;;;9.40;99.90;;;;;;5038763;28;20208;-79
2023/03/23 05:44:47;;;;;;;6.40;5.38;;;9.40;99.90;;;;;;5016531;28;20546;-78
2023/03/23 05:47:13;;;;;;;7.05;5.63;;;9.50;99.90;;;;;;5030045;28;20187;-78
2023/03/23 05:49:39;;;;;;;6.70;5.80;;;9.50;99.90;;;;;;5045738;28;20176;-78
2023/03/23 05:52:05;;;;;;;8.27;4.97;;;9.60;99.90;;;;;;5055088;28;20239;-78
2023/03/23 05:54:30;;;;;;;9.20;5.22;;;9.60;99.90;;;;;;5039897;28;20606;-78
2023/03/23 05:56:56;;;;;;;5.80;5.20;;;9.60;99.90;;;;;;5033460;28;20189;-79
2023/03/23 05:59:22;;;;;;;8.10;5.88;;;9.60;99.90;;;;;;5032636;28;20215;-79
2023/03/23 06:01:47;;;;;;;6.53;5.85;;;9.50;99.90;;;;;;5037472;28;20200;-78
2023/03/23 06:04:13;;;;;;;5.85;5.40;;;9.50;99.90;;;;;;5051212;28;20170;-78
2023/03/23 06:06:41;;;;;;;6.40;5.80;;;9.60;99.90;;;;;;5042380;28;20192;-78
2023/03/23 06:09:07;;;;;;;8.95;5.97;;;9.50;99.90;;;;;;5034755;28;20172;-78
2023/03/23 06:11:33;;;;;;;6.70;6.10;;;9.60;99.90;;;;;;5048796;28;20217;-80
2023/03/23 06:13:59;;;;;;;7.32;5.78;;;9.60;99.90;;;;;;5049169;28;20835;-80
2023/03/23 06:16:25;;;;;;;6.57;6.07;;;9.70;99.90;;;;;;5027940;28;20266;-78
2023/03/23 06:18:51;;;;;;;5.53;4.88;;;9.80;99.90;;;;;;5038442;28;20213;-77
2023/03/23 06:21:18;;;;;;;5.90;5.40;;;10.00;99.90;;;;;;5029997;28;20201;-78
2023/03/23 06:23:45;;;;;;;8.07;5.45;;;10.10;99.90;;;;;;5044119;28;20176;-79
2023/03/23 06:26:16;;;;;;;6.90;5.40;;;10.20;99.90;;;;;;5052873;28;20245;-81
2023/03/23 06:28:43;;;;;;;7.38;5.40;;;10.40;99.90;;;;;;5037244;28;20186;-78
2023/03/23 06:31:09;;;;;;;6.90;6.20;;;10.50;99.90;;;;;;5040942;28;20196;-77
2023/03/23 06:33:36;;;;;;;6.57;5.50;;;10.60;99.90;;;;;;5045405;28;20195;-79
2023/03/23 06:36:06;;;;;;;9.77;5.55;;;10.60;99.90;;;;;;5037567;28;20190;-78
2023/03/23 06:38:32;;;;;;;7.32;5.68;;;10.70;99.90;;;;;;5022689;28;22703;-78
2023/03/23 06:40:58;;;;;;;6.88;5.40;;;10.80;99.90;;;;;;5035209;28;20196;-78
2023/03/23 06:43:30;;;;;;;7.97;5.88;;;10.80;99.90;;;;;;5045116;28;20180;-77
2023/03/23 06:45:59;;;;;;;8.15;5.80;;;11.00;99.90;;;;;;5044218;28;20184;-77
2023/03/23 06:51:11;;;;;;;6.97;6.10;;;11.40;99.90;;;;;;5044110;28;20514;-80
2023/03/23 06:53:36;;;;;;;6.60;5.65;;;11.70;99.90;;;;;;5036644;28;20177;-78
2023/03/23 06:56:02;;;;;;;7.93;5.72;;;11.70;99.90;;;;;;5039124;28;20198;-78
2023/03/23 06:58:28;;;;;;;7.20;5.80;;;11.90;99.90;;;;;;5034553;28;20196;-77
2023/03/23 07:00:58;;;;;;;7.22;6.07;;;12.10;99.90;;;;;;5038681;28;20205;-81
2023/03/23 07:03:25;;;;;;;9.75;6.30;;;12.10;99.90;;;;;;5027352;28;20227;-78
2023/03/23 07:05:51;;;;;;;9.90;6.10;;;12.20;99.90;;;;;;5012894;28;20733;-77
2023/03/23 07:08:17;;;;;;;9.85;6.18;;;12.10;99.90;;;;;;5012506;28;20188;-78
2023/03/23 07:10:43;;;;;;;8.20;6.47;;;12.20;99.90;;;;;;5016643;28;20216;-78
2023/03/23 07:13:09;;;;;;;6.85;6.13;;;12.20;99.90;;;;;;5016826;28;20176;-78
2023/03/23 07:15:36;;;;;;;7.63;5.72;;;12.40;99.90;;;;;;5017915;28;20607;-77
2023/03/23 07:18:02;;;;;;;6.93;5.95;;;12.40;99.90;;;;;;5036955;28;20180;-78
2023/03/23 07:20:34;;;;;;;6.05;5.45;;;12.40;99.90;;;;;;5044865;28;20208;-79
2023/03/23 07:23:01;;;;;;;6.60;6.00;;;12.40;99.90;;;;;;5051339;28;20712;-83
2023/03/23 07:25:36;;;;;;;7.28;5.78;;;12.60;99.90;;;;;;5056356;28;20172;-81
2023/03/23 07:28:02;;;;;;;6.55;5.65;;;12.60;99.90;;;;;;5054342;28;20188;-78
2023/03/23 07:30:31;;;;;;;7.10;6.05;;;12.60;99.90;;;;;;5032971;28;20410;-76
2023/03/23 07:32:57;;;;;;;6.60;6.00;;;12.50;99.90;;;;;;5032414;28;20172;-76
2023/03/23 07:35:24;;;;;;;6.85;5.93;;;12.60;99.90;;;;;;5026298;28;20583;-77
2023/03/23 07:37:51;;;;;;;6.72;5.72;;;12.60;99.90;;;;;;5036844;28;20556;-77
2023/03/23 07:40:17;;;;;;;8.13;5.78;;;12.60;99.90;;;;;;5040691;28;20243;-76
2023/03/23 07:42:45;;;;;;;8.50;5.85;;;12.70;99.90;;;;;;5041765;28;20194;-77
2023/03/23 07:45:12;;;;;;;6.40;5.80;;;12.80;99.90;;;;;;5036552;28;20212;-77
2023/03/23 07:47:39;;;;;;;6.07;5.57;;;13.00;99.90;;;;;;5036913;28;20185;-76
2023/03/23 07:50:07;;;;;;;6.05;5.60;;;13.00;99.90;;;;;;5047311;28;20210;-76
2023/03/23 07:52:34;;;;;;;5.80;5.30;;;13.10;99.90;;;;;;5034625;28;20211;-76
2023/03/23 07:55:02;;;;;;;8.80;5.70;;;13.20;99.90;;;;;;5046479;28;20211;-76
2023/03/23 07:57:28;;;;;;;5.65;5.15;;;13.30;99.90;;;;;;5037088;28;20180;-76
2023/03/23 07:59:54;;;;;;;7.70;5.97;;;13.40;99.90;;;;;;5045232;28;20207;-76
2023/03/23 08:02:20;;;;;;;6.93;5.90;;;13.60;99.90;;;;;;5038442;28;20215;-76
2023/03/23 08:04:47;;;;;;;6.35;5.75;;;13.80;99.90;;;;;;5035833;28;20229;-77
2023/03/23 08:07:16;;;;;;;9.18;5.50;;;13.80;99.90;;;;;;5044806;28;20169;-77
2023/03/23 08:09:42;;;;;;;6.45;5.45;;;13.90;99.90;;;;;;5038593;28;20259;-76
2023/03/23 08:12:07;;;;;;;5.47;5.07;;;14.00;99.90;;;;;;5032402;28;20220;-77
2023/03/23 08:14:33;;;;;;;6.55;5.35;;;13.90;99.90;;;;;;5045282;28;20223;-76
2023/03/23 08:17:00;;;;;;;6.00;5.45;;;13.90;99.90;;;;;;5047444;28;20651;-76
2023/03/23 08:19:26;;;;;;;6.90;5.60;;;13.90;99.90;;;;;;5042695;28;20215;-76
2023/03/23 08:21:52;;;;;;;6.20;5.65;;;13.90;99.90;;;;;;5036629;28;20209;-76
2023/03/23 08:24:18;;;;;;;7.35;5.55;;;14.10;99.90;;;;;;5040396;28;20181;-75
2023/03/23 08:26:44;;;;;;;7.30;5.85;;;14.30;99.90;;;;;;5031935;28;20535;-77
2023/03/23 08:29:10;;;;;;;6.28;5.68;;;14.30;99.90;;;;;;5044394;28;20181;-76
2023/03/23 08:31:37;;;;;;;6.25;5.65;;;14.50;99.90;;;;;;5038348;28;20242;-76
2023/03/23 08:34:06;;;;;;;5.80;5.20;;;14.60;99.90;;;;;;5050662;28;20267;-77
2023/03/23 08:36:33;;;;;;;6.45;5.18;;;14.80;99.90;;;;;;5041448;28;20191;-80
2023/03/23 08:38:59;;;;;;;8.02;6.15;;;15.10;99.90;;;;;;5028806;28;20215;-78
2023/03/23 08:41:25;;;;;;;6.88;5.72;;;15.20;99.90;;;;;;5029672;28;20192;-78
2023/03/23 08:43:52;;;;;;;5.75;5.35;;;15.40;99.90;;;;;;5029965;28;20680;-77
2023/03/23 08:46:19;;;;;;;6.45;5.50;;;15.70;99.90;;;;;;5025122;28;20164;-77
2023/03/23 08:48:45;;;;;;;8.32;5.68;;;16.00;99.90;;;;;;5029626;28;20261;-78
2023/03/23 08:51:11;;;;;;;8.65;5.80;;;16.30;99.90;;;;;;5028273;28;20199;-77
2023/03/23 08:53:38;;;;;;;5.68;5.18;;;16.60;99.90;;;;;;5032441;28;20308;-77
2023/03/23 08:56:08;;;;;;;6.15;5.55;;;17.00;99.90;;;;;;5032545;28;20172;-77
2023/03/23 08:58:38;;;;;;;8.85;5.55;;;17.30;99.90;;;;;;5033630;28;20177;-76
2023/03/23 09:01:06;;;;;;;8.60;5.10;;;17.40;99.90;;;;;;5037295;28;20192;-77
2023/03/23 09:03:34;;;;;;;7.97;5.63;;;17.40;99.90;;;;;;5042216;28;20185;-79
2023/03/23 09:06:01;;;;;;;7.22;5.72;;;17.50;99.90;;;;;;5047120;28;20542;-77
2023/03/23 09:08:29;;;;;;;6.10;5.50;;;17.80;99.90;;;;;;5040669;28;20729;-80
2023/03/23 09:11:02;;;;;;;6.50;5.35;;;17.80;99.90;;;;;;5043189;28;20566;-79
2023/03/23 09:13:29;;;;;;;4.97;4.65;;;18.00;99.90;;;;;;5023897;28;20185;-77
2023/03/23 09:15:55;;;;;;;9.98;5.30;;;18.20;99.80;;;;;;5032003;28;20187;-77
2023/03/23 09:18:21;;;;;;;6.35;5.55;;;18.20;99.50;;;;;;5035427;28;20181;-77
2023/03/23 09:20:50;;;;;;;9.27;5.57;;;18.00;99.40;;;;;;5029299;28;20216;-76
2023/03/23 09:23:16;;;;;;;8.57;6.05;;;17.80;99.50;;;;;;5036890;28;20657;-77
2023/03/23 09:25:41;;;;;;;7.80;5.38;;;17.90;99.50;;;;;;5037304;28;20172;-77
2023/03/23 09:28:08;;;;;;;6.00;5.50;;;18.10;99.10;;;;;;5043224;28;20185;-77
2023/03/23 09:30:36;;;;;;;8.73;5.47;;;18.40;98.60;;;;;;5033835;28;20264;-79
2023/03/23 09:33:03;;;;;;;6.88;5.22;;;18.60;98.10;;;;;;5038566;28;20206;-79
2023/03/23 09:35:30;;;;;;;8.95;5.70;;;18.70;97.40;;;;;;5041424;28;20520;-78
2023/03/23 09:37:56;;;;;;;6.95;6.05;;;18.60;97.00;;;;;;5039481;28;20172;-78
2023/03/23 09:40:41;;;;;;;5.70;5.00;;;18.50;97.90;;;;;;5030829;28;20542;-76
2023/03/23 09:43:26;;;;;;;5.82;5.13;;;18.70;97.30;;;;;;5036234;28;20180;-76
2023/03/23 09:46:08;;;;;;;6.18;5.30;;;18.70;96.70;;;;;;5036477;28;20242;-76
2023/03/23 09:48:46;;;;;;;7.53;5.05;;;19.10;96.00;;;;;;5036276;28;20242;-77
2023/03/23 09:51:28;;;;;;;6.43;5.35;;;19.40;95.20;;;;;;5034998;28;20196;-76
2023/03/23 09:53:59;;;;;;;6.38;5.28;;;19.60;94.60;;;;;;5041620;28;20204;-79
2023/03/23 09:56:27;;;;;;;7.70;5.40;;;19.80;93.80;;;;;;5037380;28;20416;-79
2023/03/23 09:58:58;;;;;;;5.68;5.18;;;19.80;93.60;;;;;;5035938;28;20180;-79
2023/03/23 10:01:30;;;;;;;7.18;5.43;;;19.80;93.50;;;;;;5039567;28;20741;-79
2023/03/23 10:04:05;;;;;;;6.07;5.47;;;19.50;93.30;;;;;;5047498;28;20168;-78
2023/03/23 10:06:30;;;;;;;6.75;5.57;;;19.30;93.80;;;;;;5041679;28;20797;-79
2023/03/23 10:09:00;;;;;;;6.05;5.10;;;19.10;94.00;;;;;;5043026;28;20180;-79
2023/03/23 10:11:53;;;;;;;5.70;4.97;;;19.00;94.30;;;;;;5041899;28;20216;-78
2023/03/23 10:14:45;;;;;;;6.28;5.68;;;18.90;94.60;;;;;;5028462;28;20185;-77
2023/03/23 10:17:22;;;;;;;5.68;5.15;;;18.70;95.20;;;;;;5040205;28;20206;-77
2023/03/23 10:20:31;;;;;;;6.57;5.78;;;18.60;94.80;;;;;;5036368;28;20212;-77
2023/03/23 10:23:32;;;;;;;5.97;5.40;;;18.40;95.30;;;;;;5040113;28;20271;-76
2023/03/23 10:26:14;;;;;;;7.88;6.18;;;18.30;95.60;;;;;;5028779;28;20243;-77
2023/03/23 10:28:43;;;;;;;5.47;4.97;;;18.40;95.60;;;;;;5033777;28;20275;-77
2023/03/23 10:31:13;;;;;;;6.28;5.05;;;18.60;95.30;;;;;;5039596;28;20301;-81
2023/03/23 10:33:44;;;;;;;8.60;5.43;;;18.80;95.00;;;;;;5036794;28;20184;-78
2023/03/23 10:36:28;;;;;;;6.03;5.43;;;19.10;94.80;;;;;;5045804;28;20215;-80
2023/03/23 10:39:07;;;;;;;6.35;5.57;;;19.30;94.30;;;;;;5033949;28;20196;-77
2023/03/23 10:41:33;;;;;;;6.38;5.03;;;19.60;94.10;;;;;;5040821;28;20714;-80
2023/03/23 10:44:00;;;;;;;6.28;5.57;;;19.80;94.70;;;;;;5022399;28;20294;-77
2023/03/23 10:46:41;;;;;;;6.75;6.05;;;20.00;95.10;;;;;;5022577;28;20569;-77
2023/03/23 10:49:11;;;;;;;10.18;5.35;;;19.90;93.80;;;;;;5023932;28;20206;-77
2023/03/23 10:51:41;;;;;;;7.30;5.65;;;19.90;93.40;;;;;;5028128;28;20637;-77
2023/03/23 10:54:07;;;;;;;5.72;5.20;;;20.10;92.80;;;;;;5024952;28;20188;-79
2023/03/23 10:56:41;;;;;;;6.50;5.75;;;20.20;92.80;;;;;;5027471;28;20656;-80
2023/03/23 10:59:26;;;;;;;5.63;5.03;;;20.60;92.60;;;;;;5025127;28;20207;-76
2023/03/23 11:01:54;;;;;;;8.82;5.47;;;21.00;92.10;;;;;;5026525;28;20187;-76
2023/03/23 11:04:22;;;;;;;6.28;5.20;;;21.60;90.30;;;;;;5031823;28;20219;-76
2023/03/23 11:07:17;;;;;;;5.18;4.70;;;21.70;89.80;;;;;;5021320;28;20212;-77
2023/03/23 11:09:53;;;;;;;5.35;3.85;;;22.10;85.70;;;;;;5026085;28;20203;-77
2023/03/23 11:12:20;;;;;;;4.25;3.85;;;22.40;83.30;;;;;;5018850;28;20196;-77
2023/03/23 11:14:46;;;;;;;3.47;3.00;;;22.40;83.20;;;;;;5030276;28;20184;-77
2023/03/23 11:17:23;;;;;;;3.65;2.65;;;22.70;78.20;;;;;;5026927;28;20181;-77
2023/03/23 11:19:48;;;;;;;2.50;2.30;;;22.90;73.50;;;;;;5021904;28;20209;-76
2023/03/23 11:22:30;;;;;;;2.60;2.40;;;22.70;73.00;;;;;;5027676;28;20278;-77
2023/03/23 11:25:01;;;;;;;2.72;2.53;;;22.70;73.30;;;;;;5027837;28;20184;-78
2023/03/23 11:27:28;;;;;;;3.15;2.50;;;23.10;71.30;;;;;;5028043;28;20659;-75
2023/03/23 11:29:58;;;;;;;2.13;2.03;;;23.40;70.30;;;;;;5024753;28;20192;-81
2023/03/23 11:32:29;;;;;;;1.92;1.83;;;23.20;70.50;;;;;;5033743;28;20204;-76
2023/03/23 11:35:04;;;;;;;1.85;1.58;;;23.20;69.70;;;;;;5038473;28;20222;-76
2023/03/23 11:37:31;;;;;;;1.70;1.60;;;23.00;69.20;;;;;;5027623;28;20266;-77
2023/03/23 11:39:58;;;;;;;1.58;1.48;;;22.80;69.00;;;;;;5032827;28;20199;-79
2023/03/23 11:42:32;;;;;;;1.25;1.15;;;22.70;68.90;;;;;;5041939;28;20196;-76
2023/03/23 11:45:17;;;;;;;1.58;1.30;;;22.50;68.80;;;;;;5031903;28;20176;-77
2023/03/23 11:48:06;;;;;;;1.17;1.13;;;22.50;68.20;;;;;;5024109;28;20176;-77
2023/03/23 11:50:39;;;;;;;2.38;1.20;;;22.50;67.80;;;;;;5030817;28;20318;-77
2023/03/23 11:53:13;;;;;;;3.35;1.10;;;22.80;67.00;;;;;;5033665;28;20582;-77
2023/03/23 11:55:45;;;;;;;2.83;1.67;;;22.80;66.50;;;;;;5024772;28;20180;-75
2023/03/23 11:58:16;;;;;;;1.60;1.50;;;22.70;66.60;;;;;;5028035;28;20197;-76
2023/03/23 12:00:56;;;;;;;2.53;1.40;;;22.70;66.40;;;;;;5025175;28;20425;-75
2023/03/23 12:04:03;;;;;;;1.50;1.40;;;22.70;66.70;;;;;;5036910;28;20675;-75
2023/03/23 12:06:58;;;;;;;1.35;1.25;;;22.40;67.00;;;;;;5018472;28;20181;-76
2023/03/23 12:09:46;;;;;;;1.40;1.30;;;22.40;67.30;;;;;;5008020;28;20255;-77
2023/03/23 12:12:22;;;;;;;2.30;1.38;;;22.20;67.90;;;;;;5046673;28;20290;-77
2023/03/23 12:14:55;;;;;;;1.92;1.20;;;22.00;68.60;;;;;;5024124;28;20190;-77
2023/03/23 12:17:32;;;;;;;1.33;1.23;;;22.10;68.20;;;;;;5031545;28;20548;-76
2023/03/23 12:20:10;;;;;;;0.98;0.98;;;21.80;68.70;;;;;;5036296;28;20204;-75
2023/03/23 12:23:13;;;;;;;4.03;1.40;;;21.70;69.10;;;;;;5032882;28;20196;-77
2023/03/23 12:26:02;;;;;;;1.48;1.27;;;21.50;69.80;;;;;;5032974;28;20533;-77
2023/03/23 12:28:49;;;;;;;1.98;1.88;;;21.50;70.30;;;;;;5027871;28;20231;-77
2023/03/23 12:31:38;;;;;;;1.60;1.50;;;21.60;70.20;;;;;;5038906;28;20192;-77
2023/03/23 12:34:35;;;;;;;1.88;1.40;;;21.80;70.00;;;;;;5037711;28;20192;-77
2023/03/23 12:37:09;;;;;;;2.15;1.55;;;21.70;69.60;;;;;;5038007;28;20185;-76
2023/03/23 12:39:59;;;;;;;1.67;1.58;;;21.60;70.00;;;;;;5028863;28;20208;-78
2023/03/23 12:42:55;;;;;;;1.80;1.70;;;21.20;70.80;;;;;;5023715;28;20199;-78
2023/03/23 12:45:52;;;;;;;3.65;1.80;;;20.90;72.20;;;;;;5031738;28;20565;-76
2023/03/23 12:48:23;;;;;;;3.45;1.63;;;21.00;72.20;;;;;;5033482;28;20179;-80
2023/03/23 12:51:03;;;;;;;2.13;1.60;;;20.80;72.50;;;;;;5020132;28;20283;-76
2023/03/23 12:53:35;;;;;;;1.40;1.40;;;20.70;72.80;;;;;;5025926;28;20332;-76
2023/03/23 12:56:22;;;;;;;1.80;1.70;;;20.50;72.90;;;;;;5029174;28;20184;-77
2023/03/23 12:58:56;;;;;;;1.43;1.30;;;20.50;73.90;;;;;;5040762;28;20225;-76
2023/03/23 13:01:24;;;;;;;2.22;1.77;;;20.30;74.10;;;;;;5038066;28;20200;-77
2023/03/23 13:04:12;;;;;;;1.77;1.70;;;20.10;74.60;;;;;;5042031;28;20179;-76
2023/03/23 13:06:40;;;;;;;2.03;1.85;;;20.00;75.20;;;;;;5033854;28;20642;-76
2023/03/23 13:09:15;;;;;;;1.38;1.38;;;20.20;75.10;;;;;;5042559;28;20525;-76
2023/03/23 13:11:43;;;;;;;1.77;1.67;;;20.30;74.80;;;;;;5037467;28;20226;-76
2023/03/23 13:14:33;;;;;;;1.27;1.17;;;20.20;74.90;;;;;;5035997;28;20205;-76